Time;durP1;ratioP1;P1;durP2;ratioP2;P2;SDS_P1;SDS_P2;PMS_P1;PMS_P2;Temp;Humidity;BMP_temperature;BMP_pressure;BME280_temperature;BME280_humidity;BME280_pressure;Samples;Min_cycle;Max_cycle;Signal;HPM_P1;HPM_P2
2022/02/09 00:02:00;;;;;;;4.57;1.40;;;18.40;64.60;;;;;;4981873;28;20179;-80
2022/02/09 00:04:35;;;;;;;5.78;1.77;;;18.40;63.70;;;;;;5000107;28;20179;-82
2022/02/09 00:07:06;;;;;;;5.25;1.52;;;18.40;63.90;;;;;;5015106;28;20159;-81
2022/02/09 00:09:32;;;;;;;4.93;1.60;;;18.40;63.40;;;;;;4998551;28;20226;-83
2022/02/09 00:12:07;;;;;;;4.15;1.55;;;18.30;63.90;;;;;;4981354;28;20167;-82
2022/02/09 00:23:29;;;;;;;7.15;2.03;;;18.40;63.90;;;;;;4999294;28;20172;-82
2022/02/09 00:26:36;;;;;;;6.50;1.50;;;18.40;63.60;;;;;;5014421;28;20284;-81
2022/02/09 00:28:33;;;;;;;4.65;1.23;;;18.30;64.50;;;;;;5000123;28;20218;-82
2022/02/09 00:31:28;;;;;;;5.97;1.58;;;18.30;64.20;;;;;;4999635;28;20155;-81
2022/02/09 00:34:12;;;;;;;4.38;1.52;;;18.30;64.50;;;;;;5000284;28;20262;-81
2022/02/09 00:37:09;;;;;;;4.13;1.20;;;18.40;64.30;;;;;;5000049;28;20179;-81
2022/02/09 00:42:22;;;;;;;5.80;1.65;;;18.30;64.30;;;;;;4986228;28;20179;-80
2022/02/09 00:45:16;;;;;;;5.13;1.60;;;18.30;64.10;;;;;;4967710;28;20674;-81
2022/02/09 01:12:19;;;;;;;7.13;1.55;;;18.20;64.10;;;;;;4998723;28;20658;-84
2022/02/09 01:39:24;;;;;;;2.67;1.10;;;18.20;64.10;;;;;;4983697;28;20290;-81
2022/02/09 01:55:34;;;;;;;3.95;1.15;;;18.20;63.60;;;;;;5013565;28;20588;-83
2022/02/09 01:58:00;;;;;;;7.53;1.50;;;18.20;64.30;;;;;;5013409;28;20205;-81
2022/02/09 02:00:26;;;;;;;4.82;1.38;;;18.20;63.80;;;;;;4979893;28;20577;-81
2022/02/09 02:02:52;;;;;;;4.95;1.15;;;18.20;64.20;;;;;;5013356;28;20151;-83
2022/02/09 02:05:18;;;;;;;4.43;1.20;;;18.10;64.00;;;;;;4995905;28;20218;-80
2022/02/09 02:07:50;;;;;;;4.60;1.40;;;18.10;64.30;;;;;;4979309;28;20203;-80
2022/02/09 02:10:21;;;;;;;3.83;1.30;;;18.10;64.50;;;;;;4965187;28;20175;-82
2022/02/09 02:12:58;;;;;;;5.65;1.63;;;18.10;64.30;;;;;;4964932;28;20206;-82
2022/02/09 02:15:52;;;;;;;5.47;1.58;;;18.10;64.50;;;;;;4934313;28;20213;-80
2022/02/09 02:18:12;;;;;;;5.95;1.40;;;18.10;64.80;;;;;;4970826;28;20630;-82
2022/02/09 02:20:53;;;;;;;4.15;1.50;;;18.10;64.10;;;;;;4962835;28;20184;-81
2022/02/09 02:23:42;;;;;;;4.88;1.50;;;18.10;64.00;;;;;;4952892;28;20245;-83
2022/02/09 02:39:58;;;;;;;4.50;1.30;;;18.00;63.60;;;;;;4998121;28;20178;-83
2022/02/09 03:09:19;;;;;;;5.20;1.35;;;18.00;63.70;;;;;;5016079;28;20206;-82
2022/02/09 03:12:02;;;;;;;6.60;1.40;;;18.00;64.10;;;;;;4984321;28;20190;-82
2022/02/09 03:14:36;;;;;;;4.05;1.35;;;18.00;63.60;;;;;;5016165;28;20151;-81
2022/02/09 03:17:06;;;;;;;3.35;1.20;;;18.00;64.30;;;;;;5000068;28;20198;-81
2022/02/09 03:19:45;;;;;;;5.50;1.48;;;18.00;64.00;;;;;;4999151;28;20185;-83
2022/02/09 03:22:19;;;;;;;4.25;1.27;;;18.00;64.10;;;;;;4998408;28;20580;-80
2022/02/09 03:27:48;;;;;;;5.30;1.23;;;18.00;64.50;;;;;;5001366;28;20214;-84
2022/02/09 03:49:10;;;;;;;4.45;1.83;;;18.00;64.60;;;;;;5000048;28;20557;-80
2022/02/09 03:51:46;;;;;;;5.88;1.80;;;17.90;64.40;;;;;;4999894;28;20178;-83
2022/02/09 03:54:23;;;;;;;5.03;1.70;;;18.00;64.20;;;;;;4999403;28;20158;-84
2022/02/09 03:57:01;;;;;;;8.27;1.80;;;17.90;63.20;;;;;;4996456;28;20175;-80
2022/02/09 03:59:30;;;;;;;3.00;1.10;;;17.90;64.60;;;;;;5015226;28;20181;-83
2022/02/09 04:01:55;;;;;;;5.80;1.40;;;18.00;63.80;;;;;;4997573;28;20600;-84
2022/02/09 04:04:21;;;;;;;3.83;1.40;;;17.90;63.40;;;;;;4997522;28;20206;-83
2022/02/09 04:06:50;;;;;;;1.90;1.00;;;17.90;63.90;;;;;;4997743;28;20171;-82
2022/02/09 04:09:18;;;;;;;5.30;1.70;;;18.00;64.10;;;;;;4981669;28;20211;-81
2022/02/09 04:11:50;;;;;;;6.00;1.63;;;17.90;64.00;;;;;;4981920;28;20179;-81
2022/02/09 04:14:36;;;;;;;3.83;1.30;;;18.00;63.40;;;;;;4998729;28;20317;-81
2022/02/09 04:20:03;;;;;;;3.50;1.13;;;17.90;63.60;;;;;;4999283;28;20167;-82
2022/02/09 04:23:01;;;;;;;5.78;1.55;;;17.90;63.30;;;;;;5000142;28;20498;-80
2022/02/09 04:38:43;;;;;;;3.13;1.30;;;17.80;64.00;;;;;;5014516;28;20213;-83
2022/02/09 04:41:23;;;;;;;4.00;1.33;;;17.90;64.10;;;;;;4968278;28;20183;-83
2022/02/09 04:49:37;;;;;;;4.70;1.38;;;18.00;63.50;;;;;;4986691;28;20203;-82
2022/02/09 04:54:51;;;;;;;3.28;1.13;;;17.90;63.50;;;;;;4983122;28;20194;-82
2022/02/09 04:57:31;;;;;;;2.38;1.40;;;17.90;63.90;;;;;;4950943;28;20190;-83
2022/02/09 05:00:17;;;;;;;4.38;1.30;;;17.90;64.00;;;;;;4998682;28;20588;-82
2022/02/09 05:03:22;;;;;;;3.28;1.20;;;17.80;64.20;;;;;;4999449;28;20215;-83
2022/02/09 05:17:44;;;;;;;2.30;1.20;;;17.80;64.10;;;;;;4999322;28;20167;-81
2022/02/09 05:19:40;;;;;;;3.33;1.35;;;17.80;64.40;;;;;;4998899;28;20229;-80
2022/02/09 05:24:40;;;;;;;4.90;1.08;;;17.80;64.60;;;;;;4999073;28;20166;-80
2022/02/09 05:29:43;;;;;;;4.50;1.42;;;17.90;63.10;;;;;;4963692;28;20556;-80
2022/02/09 05:32:08;;;;;;;3.15;1.23;;;17.90;63.10;;;;;;4945243;28;20615;-81
2022/02/09 05:34:34;;;;;;;2.80;1.40;;;17.90;62.80;;;;;;4960463;28;20167;-81
2022/02/09 05:37:01;;;;;;;2.53;1.20;;;18.00;62.70;;;;;;4945375;28;20255;-83
2022/02/09 05:39:27;;;;;;;3.00;1.27;;;18.00;63.50;;;;;;4960695;28;20196;-82
2022/02/09 05:41:53;;;;;;;4.07;1.30;;;18.00;63.00;;;;;;4976426;28;20231;-80
2022/02/09 05:44:19;;;;;;;2.28;1.02;;;18.00;62.70;;;;;;4960809;28;20722;-82
2022/02/09 05:57:28;;;;;;;3.30;1.30;;;18.10;62.10;;;;;;4964408;28;20164;-81
2022/02/09 05:59:55;;;;;;;3.75;1.02;;;18.10;62.30;;;;;;4961354;28;20172;-82
2022/02/09 06:02:24;;;;;;;3.63;1.20;;;18.20;61.80;;;;;;4944343;28;20168;-82
2022/02/09 06:04:50;;;;;;;3.22;1.38;;;18.20;61.90;;;;;;4927929;28;20646;-81
2022/02/09 06:07:20;;;;;;;3.78;1.13;;;18.10;62.00;;;;;;4959957;28;20248;-83
2022/02/09 06:09:46;;;;;;;2.72;1.10;;;18.20;61.40;;;;;;4975963;28;20301;-81
2022/02/09 06:12:22;;;;;;;2.50;1.00;;;18.20;61.50;;;;;;4944214;28;20635;-80
2022/02/09 06:15:15;;;;;;;2.97;1.17;;;18.20;61.20;;;;;;4962049;28;20187;-83
2022/02/09 06:20:14;;;;;;;2.10;0.90;;;18.20;61.50;;;;;;4980534;28;20639;-83
2022/02/09 06:22:40;;;;;;;1.92;0.98;;;18.20;61.00;;;;;;4961336;28;20702;-82
2022/02/09 06:25:05;;;;;;;2.85;1.15;;;18.20;61.50;;;;;;4948460;28;20227;-82
2022/02/09 06:27:31;;;;;;;1.80;0.80;;;18.20;60.80;;;;;;4980641;28;20651;-81
2022/02/09 06:29:57;;;;;;;2.75;1.35;;;18.20;60.90;;;;;;4980337;28;20231;-83
2022/02/09 06:32:22;;;;;;;2.22;1.10;;;18.30;61.50;;;;;;4997579;28;20273;-82
2022/02/09 06:34:50;;;;;;;2.78;0.82;;;18.20;60.60;;;;;;4980436;28;20164;-82
2022/02/09 06:37:23;;;;;;;1.70;0.75;;;18.20;60.80;;;;;;4979882;28;20262;-84
2022/02/09 06:40:01;;;;;;;2.58;1.15;;;18.30;60.10;;;;;;4981020;28;20243;-81
2022/02/09 06:42:29;;;;;;;2.85;1.05;;;18.30;60.30;;;;;;4965080;28;20745;-79
2022/02/09 06:44:58;;;;;;;3.15;1.15;;;18.30;60.60;;;;;;4980462;28;20247;-82
2022/02/09 06:47:26;;;;;;;2.05;1.00;;;18.30;60.40;;;;;;4965379;28;20531;-83
2022/02/09 06:49:57;;;;;;;2.75;0.90;;;18.30;60.60;;;;;;4978379;28;20187;-82
2022/02/09 06:52:23;;;;;;;2.58;1.33;;;18.30;60.40;;;;;;4985400;28;20188;-80
2022/02/09 06:57:34;;;;;;;2.70;1.20;;;18.30;59.90;;;;;;5000600;28;20602;-83
2022/02/09 06:59:59;;;;;;;3.22;1.10;;;18.30;60.40;;;;;;5009333;28;20155;-80
2022/02/09 07:02:25;;;;;;;2.15;0.80;;;18.30;59.60;;;;;;4982714;28;20262;-83
2022/02/09 07:04:50;;;;;;;3.50;1.05;;;18.30;59.50;;;;;;5016988;28;20160;-81
2022/02/09 07:07:17;;;;;;;1.42;0.80;;;18.40;59.60;;;;;;5001392;28;20329;-79
2022/02/09 07:09:43;;;;;;;1.98;1.00;;;18.40;59.70;;;;;;5001389;28;20526;-79
2022/02/09 07:12:09;;;;;;;2.53;0.90;;;18.40;59.90;;;;;;5001583;28;20511;-82
2022/02/09 07:14:41;;;;;;;2.97;0.90;;;18.30;59.60;;;;;;4982552;28;20170;-83
2022/02/09 07:17:13;;;;;;;2.97;1.20;;;18.40;59.20;;;;;;4949355;28;20191;-80
2022/02/09 07:19:52;;;;;;;1.40;0.82;;;18.40;59.90;;;;;;4982455;28;20183;-84
2022/02/09 07:22:26;;;;;;;4.00;1.05;;;18.30;59.40;;;;;;4973504;28;20642;-80
2022/02/09 07:25:03;;;;;;;2.08;0.90;;;18.40;58.70;;;;;;4959545;28;20195;-84
2022/02/09 07:27:40;;;;;;;2.63;1.00;;;18.40;59.00;;;;;;4988611;28;20186;-84
2022/02/09 07:30:13;;;;;;;1.38;0.73;;;18.40;59.30;;;;;;5021999;28;20242;-84
2022/02/09 07:32:39;;;;;;;2.38;0.90;;;18.40;59.20;;;;;;4987502;28;20650;-85
2022/02/09 07:35:08;;;;;;;2.13;0.80;;;18.40;59.50;;;;;;5001592;28;20176;-83
2022/02/09 07:37:35;;;;;;;2.83;1.25;;;18.40;59.40;;;;;;4966737;28;20543;-84
2022/02/09 07:40:04;;;;;;;3.35;0.88;;;18.40;58.90;;;;;;5000109;28;20155;-85
2022/02/09 07:42:32;;;;;;;2.17;0.85;;;18.40;57.80;;;;;;5003431;28;20159;-84
2022/02/09 07:45:21;;;;;;;4.47;1.00;;;18.40;59.40;;;;;;4985338;28;20183;-83
2022/02/09 07:50:38;;;;;;;2.72;1.10;;;18.40;56.90;;;;;;4992986;28;20646;-86
2022/02/09 07:53:25;;;;;;;2.25;0.85;;;18.50;58.20;;;;;;4953325;28;20228;-88
2022/02/09 07:56:02;;;;;;;2.63;1.10;;;18.50;58.70;;;;;;4920989;29;20193;-87
2022/02/09 07:58:27;;;;;;;5.32;1.15;;;18.50;58.00;;;;;;4929396;29;20193;-84
2022/02/09 08:00:53;;;;;;;2.70;0.95;;;18.50;58.40;;;;;;4959132;29;20233;-83
2022/02/09 08:03:18;;;;;;;5.82;1.13;;;18.40;59.60;;;;;;4940517;29;20675;-85
2022/02/09 08:05:47;;;;;;;3.40;0.88;;;18.60;58.70;;;;;;4941742;29;20658;-83
2022/02/09 08:08:15;;;;;;;2.78;0.95;;;18.50;58.70;;;;;;4916043;29;20285;-83
2022/02/09 08:10:47;;;;;;;3.13;1.00;;;18.50;59.30;;;;;;4937352;29;20185;-83
2022/02/09 08:25:18;;;;;;;3.45;1.00;;;18.50;58.50;;;;;;4949206;28;21054;-83
2022/02/09 08:27:17;;;;;;;2.75;0.90;;;18.50;58.40;;;;;;4996824;28;20226;-84
2022/02/09 08:29:45;;;;;;;2.08;0.90;;;18.60;59.30;;;;;;5000048;28;20223;-82
2022/02/09 08:34:44;;;;;;;1.63;0.80;;;18.50;59.90;;;;;;4966873;28;20214;-83
2022/02/09 08:37:10;;;;;;;1.92;0.80;;;18.50;60.10;;;;;;4996386;28;20183;-83
2022/02/09 08:39:38;;;;;;;2.45;1.27;;;18.50;59.80;;;;;;4990941;28;20650;-83
2022/02/09 08:42:04;;;;;;;2.95;0.80;;;18.50;59.10;;;;;;4996558;28;20176;-82
2022/02/09 08:44:30;;;;;;;2.45;0.90;;;18.60;58.50;;;;;;5013285;28;20179;-83
2022/02/09 08:46:55;;;;;;;5.82;1.02;;;18.60;57.90;;;;;;4981327;28;20178;-83
2022/02/09 08:49:21;;;;;;;1.52;0.70;;;18.60;58.50;;;;;;4998507;28;20234;-82
2022/02/09 08:51:47;;;;;;;4.22;1.00;;;18.70;58.80;;;;;;4999840;28;20173;-84
2022/02/09 08:54:12;;;;;;;4.53;1.08;;;18.70;58.30;;;;;;4983461;28;20590;-82
2022/02/09 08:56:39;;;;;;;4.82;0.90;;;18.70;58.10;;;;;;4982237;28;20602;-85
2022/02/09 08:59:08;;;;;;;3.00;1.10;;;18.80;57.90;;;;;;4998306;28;20238;-82
2022/02/09 09:01:38;;;;;;;7.03;0.90;;;18.80;58.10;;;;;;5000060;28;20622;-82
2022/02/09 09:04:17;;;;;;;3.28;0.80;;;18.80;58.60;;;;;;4986960;28;20187;-83
2022/02/09 09:06:51;;;;;;;4.65;1.13;;;18.70;59.10;;;;;;4981417;28;20160;-82
2022/02/09 09:09:27;;;;;;;4.53;1.35;;;18.80;58.80;;;;;;4949486;28;20203;-83
2022/02/09 09:15:19;;;;;;;2.97;0.90;;;18.90;58.70;;;;;;4983232;28;20184;-85
2022/02/09 09:31:05;;;;;;;2.58;1.13;;;18.80;59.10;;;;;;5001074;28;20627;-83
2022/02/09 10:03:35;;;;;;;4.70;1.30;;;19.00;59.60;;;;;;4990127;28;20278;-84
2022/02/09 10:34:22;;;;;;;3.55;1.02;;;19.00;59.20;;;;;;4970933;28;20195;-85
2022/02/09 10:36:56;;;;;;;1.83;0.88;;;19.00;59.10;;;;;;4957853;28;20264;-85
2022/02/09 10:39:32;;;;;;;4.93;0.85;;;18.90;59.40;;;;;;4939941;28;20189;-84
2022/02/09 10:42:10;;;;;;;4.28;1.02;;;18.90;59.20;;;;;;4911881;28;20215;-84
2022/02/09 10:44:45;;;;;;;4.53;1.15;;;18.90;59.00;;;;;;4914256;28;20184;-86
2022/02/09 10:47:21;;;;;;;1.88;0.95;;;19.00;59.10;;;;;;4959150;28;20195;-84
2022/02/09 10:50:25;;;;;;;1.58;0.82;;;19.00;58.90;;;;;;4909711;28;20224;-84
2022/02/09 10:52:59;;;;;;;2.30;0.88;;;19.00;59.40;;;;;;4941638;28;20212;-84
2022/02/09 10:55:43;;;;;;;4.45;1.30;;;19.00;59.40;;;;;;4926508;28;20189;-85
2022/02/09 10:58:12;;;;;;;2.72;0.70;;;19.00;59.10;;;;;;4973007;28;20296;-87
2022/02/09 11:00:43;;;;;;;3.72;0.93;;;18.90;58.50;;;;;;4926468;28;20184;-85
2022/02/09 11:03:23;;;;;;;2.63;0.80;;;19.00;59.00;;;;;;4941532;28;20520;-84
2022/02/09 11:05:51;;;;;;;3.17;0.90;;;19.00;58.80;;;;;;4942347;28;20173;-85
2022/02/09 11:08:18;;;;;;;3.00;0.90;;;19.00;58.80;;;;;;4974183;28;20225;-84
2022/02/09 11:10:44;;;;;;;2.45;1.23;;;19.00;58.10;;;;;;5018169;28;20674;-85
2022/02/09 11:13:11;;;;;;;3.45;1.33;;;19.10;58.90;;;;;;4983718;28;20235;-86
2022/02/09 11:15:38;;;;;;;2.67;1.20;;;19.00;58.90;;;;;;4983292;28;20187;-86
2022/02/09 11:18:07;;;;;;;1.85;0.93;;;19.00;58.90;;;;;;4982450;28;20622;-85
2022/02/09 11:20:40;;;;;;;2.05;0.80;;;19.00;58.20;;;;;;4982202;28;20183;-85
2022/02/09 11:23:07;;;;;;;1.75;0.95;;;19.00;58.20;;;;;;4999273;28;20168;-84
2022/02/09 11:25:34;;;;;;;5.15;1.10;;;19.10;57.60;;;;;;4982809;28;20226;-85
2022/02/09 11:28:17;;;;;;;6.32;1.20;;;19.10;58.20;;;;;;4967598;28;20207;-87
2022/02/09 11:31:11;;;;;;;5.57;1.20;;;19.10;58.30;;;;;;4999589;28;20246;-86
2022/02/09 11:34:01;;;;;;;2.53;1.10;;;19.00;58.70;;;;;;4986481;28;20159;-85
2022/02/09 11:36:36;;;;;;;2.80;1.10;;;19.00;58.80;;;;;;4985806;28;20263;-84
2022/02/09 11:39:11;;;;;;;4.30;1.17;;;19.00;59.00;;;;;;4984230;28;20218;-86
2022/02/09 11:41:53;;;;;;;4.25;1.13;;;19.00;59.10;;;;;;4999490;28;20493;-84
2022/02/09 11:44:52;;;;;;;3.42;1.13;;;19.00;59.30;;;;;;4983719;28;20190;-84
2022/02/09 11:47:59;;;;;;;2.08;1.00;;;19.00;58.90;;;;;;4970599;28;20624;-85
2022/02/09 11:54:36;;;;;;;2.50;0.95;;;18.90;59.20;;;;;;4981439;28;20544;-84
2022/02/09 11:56:21;;;;;;;6.22;1.27;;;19.00;59.30;;;;;;4998496;28;20658;-84
2022/02/09 11:58:51;;;;;;;15.95;1.63;;;19.00;59.00;;;;;;4983408;28;20517;-85
2022/02/09 12:01:38;;;;;;;10.10;1.52;;;19.00;59.20;;;;;;4983673;28;20255;-84
2022/02/09 12:10:11;;;;;;;7.57;1.20;;;19.10;58.80;;;;;;4967051;28;20533;-83
2022/02/09 12:12:51;;;;;;;3.30;1.10;;;19.00;58.60;;;;;;4960836;28;20187;-84
2022/02/09 12:18:33;;;;;;;4.45;1.13;;;19.10;58.50;;;;;;5002825;28;20172;-85
2022/02/09 12:21:04;;;;;;;5.25;1.00;;;19.00;58.50;;;;;;4955731;28;20183;-85
2022/02/09 12:23:32;;;;;;;4.00;1.30;;;19.00;58.60;;;;;;5000490;28;20148;-84
2022/02/09 12:26:00;;;;;;;2.33;0.90;;;19.00;58.40;;;;;;4982763;28;20250;-85
2022/02/09 12:28:30;;;;;;;3.80;1.25;;;19.10;58.50;;;;;;4983030;28;20206;-83
2022/02/09 12:31:05;;;;;;;4.57;0.80;;;19.10;58.40;;;;;;4968674;28;20184;-85
2022/02/09 12:33:51;;;;;;;4.10;1.08;;;19.00;58.50;;;;;;4982589;28;20580;-83
2022/02/09 12:36:24;;;;;;;2.78;1.00;;;19.10;58.50;;;;;;4955606;28;20187;-86
2022/02/09 12:38:57;;;;;;;2.35;0.80;;;19.10;58.30;;;;;;4984583;28;20163;-83
2022/02/09 12:41:26;;;;;;;4.72;1.30;;;19.10;57.50;;;;;;4952700;28;20187;-86
2022/02/09 12:43:59;;;;;;;2.35;0.90;;;19.10;58.50;;;;;;4982522;28;20201;-83
2022/02/09 12:46:31;;;;;;;5.35;1.20;;;19.10;58.50;;;;;;4999594;28;20152;-86
2022/02/09 12:49:09;;;;;;;5.38;1.00;;;19.10;58.20;;;;;;4968116;28;20227;-83
2022/02/09 12:51:40;;;;;;;3.08;1.13;;;19.10;58.30;;;;;;4986852;28;20175;-85
2022/02/09 12:54:10;;;;;;;2.05;0.80;;;19.10;58.10;;;;;;4950519;28;20666;-85
2022/02/09 12:56:38;;;;;;;4.40;1.17;;;19.20;57.70;;;;;;4945664;28;20573;-85
2022/02/09 12:59:06;;;;;;;2.53;1.10;;;19.10;58.20;;;;;;4980276;28;20218;-85
2022/02/09 13:01:50;;;;;;;7.22;0.90;;;19.10;58.20;;;;;;4979363;28;20252;-84
2022/02/09 13:04:36;;;;;;;3.13;0.88;;;19.10;58.50;;;;;;4978687;28;20164;-85
2022/02/09 13:07:07;;;;;;;2.92;0.85;;;19.10;58.30;;;;;;4962295;28;20194;-84
2022/02/09 13:09:39;;;;;;;2.67;1.00;;;19.10;58.10;;;;;;4981079;28;20219;-85
2022/02/09 13:12:05;;;;;;;3.25;1.10;;;19.10;58.20;;;;;;4964628;28;20183;-85
2022/02/09 13:14:36;;;;;;;3.83;1.00;;;19.10;58.20;;;;;;4965161;28;20163;-84
2022/02/09 13:17:21;;;;;;;3.38;1.20;;;19.10;58.20;;;;;;4982593;28;20639;-86
2022/02/09 13:23:23;;;;;;;3.47;0.95;;;19.10;57.90;;;;;;4998480;28;20175;-84
2022/02/09 14:07:32;;;;;;;2.28;1.02;;;19.10;57.50;;;;;;4962470;28;20212;-84
2022/02/09 14:15:23;;;;;;;1.88;0.88;;;19.10;57.70;;;;;;4976894;28;20196;-86
2022/02/09 14:18:08;;;;;;;3.13;0.93;;;19.00;57.30;;;;;;4948583;28;20559;-85
2022/02/09 14:48:04;;;;;;;1.75;1.00;;;19.30;57.30;;;;;;4974006;28;20186;-83
2022/02/09 14:56:00;;;;;;;2.60;0.77;;;19.20;57.20;;;;;;4995803;28;20223;-85
2022/02/09 14:58:29;;;;;;;1.40;0.90;;;19.20;57.20;;;;;;4983693;28;20244;-84
2022/02/09 15:01:02;;;;;;;3.33;0.70;;;19.20;57.70;;;;;;4968163;28;20270;-84
2022/02/09 15:03:48;;;;;;;2.47;0.90;;;19.20;57.80;;;;;;4982637;28;20398;-85
2022/02/09 15:09:09;;;;;;;1.33;0.80;;;19.20;57.80;;;;;;4997458;28;20672;-83
2022/02/09 15:11:49;;;;;;;3.15;1.00;;;19.20;57.60;;;;;;4994461;28;20191;-84
2022/02/09 15:14:21;;;;;;;1.58;0.75;;;19.20;57.50;;;;;;4999949;28;20168;-85
2022/02/09 15:17:17;;;;;;;2.78;0.85;;;19.20;57.20;;;;;;4983836;28;20163;-84
2022/02/09 15:20:09;;;;;;;2.08;0.90;;;19.20;57.40;;;;;;4974210;28;20191;-84
2022/02/09 15:22:22;;;;;;;1.60;0.68;;;19.20;57.00;;;;;;5002036;28;20179;-84
2022/02/09 15:24:49;;;;;;;3.38;0.75;;;19.20;57.30;;;;;;4966648;28;20681;-84
2022/02/09 15:27:18;;;;;;;3.60;0.88;;;19.20;57.70;;;;;;5000062;28;20176;-84
2022/02/09 15:29:45;;;;;;;12.52;1.63;;;19.10;57.30;;;;;;5001007;28;20195;-84
2022/02/09 15:32:19;;;;;;;14.10;1.73;;;19.10;57.30;;;;;;5019122;28;20170;-83
2022/02/09 15:34:51;;;;;;;6.20;1.08;;;19.20;57.60;;;;;;5019956;28;20561;-85
2022/02/09 15:37:33;;;;;;;7.95;1.05;;;19.10;57.10;;;;;;4972842;28;20209;-85
2022/02/09 15:40:27;;;;;;;3.83;1.30;;;19.20;57.40;;;;;;5006039;28;20621;-85
2022/02/09 15:43:08;;;;;;;5.30;1.20;;;19.10;57.40;;;;;;4965029;28;20761;-85
2022/02/09 15:57:16;;;;;;;3.67;0.93;;;19.20;56.90;;;;;;4945430;29;20169;-85
2022/02/09 16:05:37;;;;;;;9.35;1.00;;;19.30;56.70;;;;;;4947043;29;20193;-86
2022/02/09 16:46:24;;;;;;;7.45;0.90;;;19.20;57.60;;;;;;4950093;28;20200;-83
2022/02/09 16:48:59;;;;;;;5.40;1.27;;;19.20;57.60;;;;;;4942634;28;20220;-84
2022/02/09 16:51:26;;;;;;;4.32;1.00;;;19.20;57.90;;;;;;4943500;28;20188;-84
2022/02/09 16:54:06;;;;;;;3.45;1.10;;;19.20;57.60;;;;;;4960561;28;20193;-83
2022/02/09 16:56:46;;;;;;;6.68;1.17;;;19.20;58.00;;;;;;4946100;28;20173;-84
2022/02/09 17:20:32;;;;;;;3.53;0.98;;;19.20;58.20;;;;;;4980931;28;20247;-84
2022/02/09 17:22:59;;;;;;;6.88;1.30;;;19.20;58.00;;;;;;4976760;28;20243;-83
2022/02/09 17:25:24;;;;;;;3.40;0.95;;;19.20;58.10;;;;;;4977893;28;20235;-83
2022/02/09 17:27:54;;;;;;;4.13;1.10;;;19.20;58.10;;;;;;4994611;28;20166;-82
2022/02/09 17:30:42;;;;;;;4.72;1.02;;;19.20;58.10;;;;;;4978618;28;20276;-84
2022/02/09 17:33:14;;;;;;;4.07;1.00;;;19.30;58.00;;;;;;4981618;28;20274;-83
2022/02/09 17:36:01;;;;;;;8.98;1.38;;;19.20;58.10;;;;;;4979240;28;20302;-84
2022/02/09 17:38:46;;;;;;;10.73;1.00;;;19.30;59.30;;;;;;4983035;28;20192;-84
2022/02/09 17:55:24;;;;;;;9.07;0.90;;;19.40;59.30;;;;;;4972755;28;20301;-84
2022/02/09 17:57:31;;;;;;;7.13;1.45;;;19.50;59.20;;;;;;4985922;28;20325;-83
2022/02/09 18:00:16;;;;;;;2.78;0.90;;;19.40;59.20;;;;;;4967859;28;20270;-82
2022/02/09 18:02:48;;;;;;;7.55;1.63;;;19.50;59.10;;;;;;4987641;28;20191;-84
2022/02/09 18:05:22;;;;;;;6.07;1.20;;;19.50;59.30;;;;;;4966702;28;20183;-85
2022/02/09 18:07:54;;;;;;;5.10;1.05;;;19.50;59.30;;;;;;4966983;28;20195;-82
2022/02/09 18:10:41;;;;;;;5.90;1.20;;;19.50;59.00;;;;;;4964638;28;20187;-82
2022/02/09 18:16:10;;;;;;;3.55;1.05;;;19.50;59.40;;;;;;4981369;28;20209;-82
2022/02/09 18:32:10;;;;;;;4.22;1.02;;;19.50;60.80;;;;;;4986259;28;20190;-82
2022/02/09 18:37:42;;;;;;;4.63;1.60;;;19.50;60.40;;;;;;4973928;28;20191;-83
2022/02/09 18:41:07;;;;;;;2.97;1.17;;;19.40;60.40;;;;;;4987010;28;20262;-85
2022/02/09 18:42:58;;;;;;;5.88;1.55;;;19.50;60.30;;;;;;4990711;28;20239;-83
2022/02/09 18:45:38;;;;;;;4.32;1.17;;;19.50;60.10;;;;;;4985718;28;20175;-83
2022/02/09 18:48:15;;;;;;;6.32;1.15;;;19.40;60.40;;;;;;4985109;28;20191;-83
2022/02/09 18:59:24;;;;;;;2.40;1.00;;;19.40;59.60;;;;;;5001017;28;20165;-84
2022/02/09 19:01:59;;;;;;;8.48;1.38;;;19.50;60.10;;;;;;4989479;28;20595;-84
2022/02/09 19:04:26;;;;;;;3.38;1.13;;;19.50;60.40;;;;;;5002287;28;20219;-85
2022/02/09 19:07:14;;;;;;;8.25;1.75;;;19.40;60.10;;;;;;4983203;28;20266;-85
2022/02/09 19:17:59;;;;;;;6.30;1.00;;;19.30;60.00;;;;;;4972872;28;20187;-87
2022/02/09 19:20:43;;;;;;;7.18;1.30;;;19.40;60.40;;;;;;4955565;28;20310;-84
2022/02/09 19:31:31;;;;;;;3.17;1.25;;;19.40;60.80;;;;;;4988377;28;20178;-86
2022/02/09 19:47:11;;;;;;;2.95;0.80;;;19.30;60.40;;;;;;5000422;28;20184;-87
2022/02/09 19:49:53;;;;;;;2.75;0.90;;;19.40;60.60;;;;;;4968148;28;20210;-86
2022/02/09 19:57:39;;;;;;;2.55;1.00;;;19.30;61.30;;;;;;4985175;28;20171;-86
2022/02/09 20:00:06;;;;;;;3.75;1.00;;;19.30;61.30;;;;;;4981796;28;20183;-86
2022/02/09 20:02:33;;;;;;;6.18;0.93;;;19.30;61.20;;;;;;4998237;28;20152;-87
2022/02/09 20:04:58;;;;;;;5.07;1.15;;;19.20;60.60;;;;;;4982236;28;20178;-86
2022/02/09 20:07:24;;;;;;;6.95;1.08;;;19.30;61.20;;;;;;4981512;28;20163;-85
2022/02/09 20:09:50;;;;;;;4.10;1.08;;;19.20;60.70;;;;;;4981783;28;20195;-86
2022/02/09 20:12:16;;;;;;;10.43;1.27;;;19.30;60.80;;;;;;4997771;28;20242;-86
2022/02/09 20:14:47;;;;;;;3.22;1.48;;;19.20;61.10;;;;;;4981587;28;20218;-87
2022/02/09 20:17:13;;;;;;;5.00;1.00;;;19.20;60.70;;;;;;4965670;28;20184;-86
2022/02/09 20:19:42;;;;;;;5.20;1.02;;;19.20;60.30;;;;;;4981986;28;20190;-86
2022/02/09 20:22:07;;;;;;;4.95;1.20;;;19.20;60.50;;;;;;4982410;28;20629;-86
2022/02/09 20:24:33;;;;;;;6.80;1.30;;;19.20;60.40;;;;;;4997684;28;20207;-86
2022/02/09 20:27:03;;;;;;;6.07;1.02;;;19.20;60.40;;;;;;4998275;28;20266;-86
2022/02/09 20:29:31;;;;;;;4.65;1.40;;;19.20;60.60;;;;;;4969008;28;20199;-86
2022/02/09 20:32:12;;;;;;;3.00;0.93;;;19.20;60.70;;;;;;4982472;28;20218;-86
2022/02/09 20:34:47;;;;;;;5.78;1.00;;;19.20;60.70;;;;;;4940552;28;20183;-86
2022/02/09 20:37:15;;;;;;;4.07;1.25;;;19.20;60.30;;;;;;4983969;28;20155;-86
2022/02/09 20:39:54;;;;;;;4.30;0.90;;;19.20;60.60;;;;;;4947149;28;20190;-86
2022/02/09 20:42:21;;;;;;;4.32;0.80;;;19.20;60.50;;;;;;4969083;28;20193;-86
2022/02/09 20:44:56;;;;;;;2.63;0.80;;;19.20;60.90;;;;;;4965341;28;20167;-86
2022/02/09 20:47:24;;;;;;;4.80;1.27;;;19.20;60.80;;;;;;4982253;28;20217;-86
2022/02/09 20:49:49;;;;;;;3.63;1.17;;;19.20;60.70;;;;;;4964135;28;20250;-86
2022/02/09 20:52:16;;;;;;;2.33;1.15;;;19.10;60.60;;;;;;4964638;28;20159;-86
2022/02/09 20:54:43;;;;;;;3.83;0.98;;;19.10;61.20;;;;;;4963850;28;20194;-86
2022/02/09 20:57:09;;;;;;;3.60;1.17;;;19.10;61.00;;;;;;4996901;28;20191;-86
2022/02/09 20:59:41;;;;;;;5.05;1.20;;;19.10;60.80;;;;;;4964651;28;20172;-86
2022/02/09 21:02:30;;;;;;;2.80;0.90;;;19.10;61.30;;;;;;5014496;28;20243;-86
2022/02/09 21:04:56;;;;;;;10.43;0.88;;;19.10;61.00;;;;;;5013923;28;20202;-86
2022/02/09 21:07:39;;;;;;;4.18;1.00;;;19.10;60.60;;;;;;4996596;28;20207;-86
2022/02/09 21:10:23;;;;;;;3.40;0.90;;;19.10;60.90;;;;;;4996944;28;20202;-86
2022/02/09 21:12:55;;;;;;;3.35;0.90;;;19.10;60.80;;;;;;4996589;28;20206;-86
2022/02/09 21:16:10;;;;;;;3.05;1.00;;;19.00;61.10;;;;;;4982020;28;20159;-86
2022/02/09 21:21:17;;;;;;;5.03;1.00;;;19.10;61.00;;;;;;4985173;28;20170;-86
2022/02/09 21:23:50;;;;;;;5.90;1.00;;;19.10;61.50;;;;;;4999182;28;20167;-86
2022/02/09 21:26:41;;;;;;;2.10;0.80;;;19.00;60.90;;;;;;4998578;28;20273;-86
2022/02/09 21:45:37;;;;;;;3.45;0.90;;;18.80;63.10;;;;;;4984172;28;20170;-86
2022/02/09 21:56:25;;;;;;;3.83;1.10;;;18.80;63.50;;;;;;4998074;28;20159;-86
2022/02/09 21:58:59;;;;;;;2.22;1.10;;;18.80;63.80;;;;;;4985226;28;20171;-86
2022/02/09 22:20:21;;;;;;;5.43;1.10;;;18.70;63.50;;;;;;4998510;28;20185;-87
2022/02/09 22:22:52;;;;;;;2.92;0.90;;;18.70;63.20;;;;;;5013311;28;20152;-86
2022/02/09 22:28:07;;;;;;;1.95;0.90;;;18.70;63.60;;;;;;4998485;28;20162;-86
2022/02/09 22:49:48;;;;;;;3.30;0.90;;;18.60;63.10;;;;;;4997694;28;20290;-86
2022/02/09 22:54:52;;;;;;;3.75;1.08;;;18.60;63.90;;;;;;4998329;28;20175;-86
2022/02/09 22:57:26;;;;;;;4.03;0.90;;;18.60;63.70;;;;;;4995509;28;20209;-86
2022/02/09 23:00:02;;;;;;;3.17;0.90;;;18.60;63.50;;;;;;4981445;28;20183;-86
2022/02/09 23:02:36;;;;;;;3.75;1.20;;;18.60;63.80;;;;;;4966931;28;20179;-86
2022/02/09 23:07:58;;;;;;;1.80;0.65;;;18.60;63.30;;;;;;4985680;28;20219;-86
2022/02/09 23:13:15;;;;;;;3.33;1.00;;;18.50;63.80;;;;;;4970478;28;20237;-86
2022/02/09 23:15:56;;;;;;;1.50;0.80;;;18.60;63.60;;;;;;4970679;28;20187;-86
2022/02/09 23:26:59;;;;;;;3.63;1.00;;;18.50;63.80;;;;;;4960672;28;20227;-86
2022/02/09 23:56:47;;;;;;;3.90;0.77;;;18.40;63.60;;;;;;4973594;28;20187;-86
